createdAt,value
2016-07-13T14:30:40.994Z,66.2
2016-07-13T14:31:40.975Z,66.11
2016-07-13T14:32:40.974Z,66.39
2016-07-13T14:33:40.959Z,66.49
2016-07-13T14:34:40.955Z,66.59
2016-07-13T14:35:40.948Z,66.88
2016-07-13T14:36:40.939Z,67.16
2016-07-13T14:37:40.931Z,66.88
2016-07-13T14:38:40.923Z,66.59
2016-07-13T14:39:40.915Z,66.2
2016-07-13T14:40:40.918Z,66.2
2016-07-13T14:41:40.911Z,66.11
2016-07-13T14:42:40.901Z,66.97
2016-07-13T14:43:40.895Z,66.3
2016-07-13T14:44:40.893Z,66.49
2016-07-13T14:45:40.891Z,66.59
2016-07-13T14:46:40.886Z,66.3
2016-07-13T14:47:40.885Z,66.39
2016-07-13T14:48:40.880Z,66.39
2016-07-13T14:49:40.878Z,66.39
2016-07-13T14:50:40.876Z,65.24
2016-07-13T14:51:40.869Z,65.24
2016-07-13T14:52:40.873Z,65.33
2016-07-13T14:53:40.868Z,65.37
2016-07-13T14:54:40.862Z,64.79
2016-07-13T14:55:41.062Z,64.59
2016-07-13T14:56:41.056Z,64.31
2016-07-13T14:57:40.854Z,64.31
2016-07-13T14:58:40.858Z,63.73
2016-07-13T14:59:40.856Z,64.05
2016-07-13T15:00:40.851Z,64.15
2016-07-13T15:01:40.850Z,63.95
2016-07-13T15:02:40.847Z,63.85
2016-07-13T15:03:40.845Z,64.05
2016-07-13T15:04:40.846Z,64.43
2016-07-13T15:05:40.849Z,64.63
2016-07-13T15:06:40.835Z,64.34
2016-07-13T15:07:40.840Z,64.08
2016-07-13T15:08:40.833Z,63.98
2016-07-13T15:09:40.839Z,63.7
2016-07-13T15:10:40.836Z,63.6
2016-07-13T15:11:40.832Z,62.73
2016-07-13T15:12:40.829Z,63.21
2016-07-13T15:13:40.832Z,63.02
2016-07-13T15:14:40.829Z,62.82
2016-07-13T15:15:40.825Z,62.15
2016-07-13T15:16:40.833Z,62.82
2016-07-13T15:17:40.824Z,62.92
2016-07-13T15:18:40.828Z,63.6
2016-07-13T15:19:40.828Z,63.7
2016-07-13T15:20:40.824Z,63.95
2016-07-13T15:21:40.821Z,64.05
2016-07-13T15:22:40.817Z,63.6
2016-07-13T15:23:40.817Z,63.6
2016-07-13T15:24:40.819Z,63.79
2016-07-13T15:25:40.815Z,63.6
2016-07-13T15:26:40.816Z,63.98
2016-07-13T15:27:40.824Z,64.08
2016-07-13T15:28:40.818Z,64.47
2016-07-13T15:29:40.809Z,64.66
2016-07-13T15:30:40.867Z,64.95
2016-07-13T15:31:40.810Z,64.76
2016-07-13T15:32:40.817Z,65.47
2016-07-13T15:33:40.809Z,65.43
2016-07-13T15:34:40.811Z,64.98
2016-07-13T15:35:40.813Z,64.89
2016-07-13T15:36:40.812Z,65.27
2016-07-13T15:37:40.812Z,64.89
2016-07-13T15:38:40.813Z,64.89
2016-07-13T15:39:40.807Z,64.89
2016-07-13T15:40:40.809Z,64.34
2016-07-13T15:41:40.809Z,64.11
2016-07-13T15:42:40.805Z,64.05
2016-07-13T15:43:40.810Z,64.05
2016-07-13T15:44:40.805Z,63.56
2016-07-13T15:45:40.809Z,63.47
2016-07-13T15:46:40.809Z,63.08
2016-07-13T15:47:40.813Z,63.08
2016-07-13T15:48:40.813Z,63.28
2016-07-13T15:49:40.807Z,63.08
2016-07-13T15:50:40.807Z,62.98
2016-07-13T15:51:40.809Z,63.08
2016-07-13T15:52:40.804Z,62.79
2016-07-13T15:53:40.818Z,62.31
2016-07-13T15:54:40.805Z,62.21
2016-07-13T15:55:40.807Z,62.4
2016-07-13T15:56:41.003Z,62.21
2016-07-13T15:57:40.805Z,62.15
2016-07-13T15:58:40.810Z,62.12
2016-07-13T15:59:40.808Z,62.34
2016-07-13T16:00:40.807Z,61.76
2016-07-13T16:01:40.807Z,61.83
2016-07-13T16:02:40.813Z,62.12
2016-07-13T16:03:40.807Z,62.24
2016-07-13T16:04:40.807Z,62.12
2016-07-13T16:05:40.808Z,62.44
2016-07-13T16:06:40.810Z,62.05
2016-07-13T16:07:40.814Z,61.95
2016-07-13T16:08:40.810Z,61.95
2016-07-13T16:09:40.938Z,61.76
2016-07-13T16:10:40.814Z,61.76
2016-07-13T16:11:41.091Z,62.05
2016-07-13T16:12:40.815Z,61.86
2016-07-13T16:13:40.819Z,61.66
2016-07-13T16:14:40.815Z,61.57
2016-07-13T16:15:40.820Z,61.47
2016-07-13T16:16:40.816Z,61.47
2016-07-13T16:17:40.818Z,62.05
2016-07-13T16:18:40.822Z,62.15
2016-07-13T16:19:40.814Z,61.86
2016-07-13T16:20:40.823Z,61.27
2016-07-13T16:21:40.820Z,61.37
2016-07-13T16:22:40.823Z,61.18
2016-07-13T16:23:40.826Z,61.37
2016-07-13T16:24:40.829Z,61.47
2016-07-13T16:25:40.828Z,61.57
2016-07-13T16:26:40.828Z,61.37
2016-07-13T16:27:40.829Z,61.27
2016-07-13T16:28:40.826Z,61.08
2016-07-13T16:29:40.830Z,61.18
2016-07-13T16:30:40.832Z,61.21
2016-07-13T16:31:40.830Z,61.69
2016-07-13T16:32:40.833Z,61.69
2016-07-13T16:33:40.833Z,61.5
2016-07-13T16:34:40.830Z,61.27
2016-07-13T16:35:40.833Z,61.3
2016-07-13T16:36:40.836Z,61.02
2016-07-13T16:37:40.835Z,61.3
2016-07-13T16:38:40.837Z,61.3
2016-07-13T16:39:40.841Z,61.3
2016-07-13T16:40:40.843Z,61.37
2016-07-13T16:41:40.836Z,61.21
2016-07-13T16:42:40.843Z,61.08
2016-07-13T16:43:41.045Z,61.18
2016-07-13T16:44:40.840Z,61.02
2016-07-13T16:45:40.846Z,61.3
2016-07-13T16:46:40.842Z,61.3
2016-07-13T16:47:40.850Z,61.27
2016-07-13T16:48:41.056Z,61.21
2016-07-13T16:49:40.846Z,61.37
2016-07-13T16:50:40.852Z,61.18
2016-07-13T16:51:40.857Z,60.99
2016-07-13T16:52:40.850Z,61.27
2016-07-13T16:53:40.853Z,61.27
2016-07-13T16:54:40.851Z,61.3
2016-07-13T16:55:40.860Z,60.99
2016-07-13T16:56:40.859Z,61.27
2016-07-13T16:57:40.859Z,61.27
2016-07-13T16:58:40.859Z,61.18
2016-07-13T16:59:40.871Z,61.27
2016-07-13T17:00:40.858Z,61.08
2016-07-13T17:01:40.859Z,61.3
2016-07-13T17:02:40.861Z,61.27
2016-07-13T17:03:40.864Z,61.18
2016-07-13T17:04:40.865Z,61.27
2016-07-13T17:05:41.065Z,61.27
2016-07-13T17:06:40.872Z,61.27
2016-07-13T17:07:40.877Z,61.08
2016-07-13T17:08:40.869Z,61.18
2016-07-13T17:09:40.871Z,61.27
2016-07-13T17:10:40.875Z,61.18
2016-07-13T17:11:40.874Z,61.18
2016-07-13T17:12:40.876Z,61.27
2016-07-13T17:13:40.873Z,61.27
2016-07-13T17:14:40.874Z,61.18
2016-07-13T17:15:40.874Z,61.18
2016-07-13T17:16:40.872Z,61.27
2016-07-13T17:17:41.080Z,61.08
2016-07-13T17:18:40.960Z,61.11
2016-07-13T17:19:40.970Z,61.08
2016-07-13T17:20:40.970Z,61.27
2016-07-13T17:21:40.983Z,61.08
2016-07-13T17:22:40.984Z,61.18
2016-07-13T17:23:40.995Z,61.08
2016-07-13T17:24:41.000Z,61.18
2016-07-13T17:25:41.106Z,61.18
2016-07-13T17:26:41.011Z,61.08
2016-07-13T17:27:41.022Z,61.18
2016-07-13T17:28:40.893Z,60.99
2016-07-13T17:29:40.893Z,61.18
2016-07-13T17:30:40.897Z,61.08
2016-07-13T17:31:40.892Z,61.08
2016-07-13T17:32:40.890Z,60.89
2016-07-13T17:33:40.900Z,61.08
2016-07-13T17:34:40.892Z,60.92
2016-07-13T17:35:40.900Z,60.99
2016-07-13T17:36:40.900Z,60.99
2016-07-13T17:37:40.901Z,61.08
2016-07-13T17:38:40.908Z,61.08
2016-07-13T17:39:40.907Z,60.89
2016-07-13T17:40:40.903Z,60.99
2016-07-13T17:41:40.909Z,60.99
2016-07-13T17:42:40.911Z,60.99
2016-07-13T17:43:40.908Z,61.08
2016-07-13T17:44:40.913Z,61.08
2016-07-13T17:45:40.912Z,60.89
2016-07-13T17:46:40.909Z,60.89
2016-07-13T17:47:40.931Z,61.18
2016-07-13T17:48:41.116Z,61.08
2016-07-13T17:49:40.924Z,60.99
2016-07-13T17:50:40.917Z,60.99
2016-07-13T17:51:40.934Z,60.79
2016-07-13T17:52:40.913Z,60.99
2016-07-13T17:53:40.925Z,60.99
2016-07-13T17:54:40.920Z,60.99
2016-07-13T17:55:40.924Z,60.99
2016-07-13T17:56:40.930Z,60.89
2016-07-13T17:57:40.926Z,60.99
2016-07-13T17:58:40.927Z,60.99
2016-07-13T17:59:40.935Z,60.99
2016-07-13T18:00:40.930Z,61.08
2016-07-13T18:01:40.928Z,60.89
2016-07-13T18:02:40.931Z,60.99
2016-07-13T18:03:40.934Z,61.02
2016-07-13T18:04:40.938Z,60.69
2016-07-13T18:05:41.135Z,61.08
2016-07-13T18:06:40.937Z,60.89
2016-07-13T18:07:40.940Z,60.79
2016-07-13T18:08:40.944Z,60.89
2016-07-13T18:09:40.943Z,60.92
2016-07-13T18:10:40.950Z,60.79
2016-07-13T18:11:40.939Z,60.79
2016-07-13T18:12:41.142Z,60.79
2016-07-13T18:13:40.950Z,60.89
2016-07-13T18:14:40.947Z,60.79
2016-07-13T18:15:40.949Z,60.99
2016-07-13T18:16:41.152Z,60.5
2016-07-13T18:17:40.948Z,60.79
2016-07-13T18:18:40.948Z,61.08
2016-07-13T18:19:40.963Z,60.89
2016-07-13T18:20:40.950Z,60.89
2016-07-13T18:21:40.953Z,60.89
2016-07-13T18:22:40.955Z,60.79
2016-07-13T18:23:40.954Z,60.79
2016-07-13T18:24:40.953Z,60.89
2016-07-13T18:25:40.956Z,60.69
2016-07-13T18:26:41.162Z,60.89
2016-07-13T18:27:40.954Z,60.6
2016-07-13T18:28:40.966Z,60.99
2016-07-13T18:29:40.966Z,60.99
2016-07-13T18:30:40.962Z,60.5
2016-07-13T18:31:40.968Z,60.79
2016-07-13T18:32:40.965Z,60.69
2016-07-13T18:33:40.968Z,60.79
2016-07-13T18:34:40.967Z,60.79
2016-07-13T18:35:40.975Z,60.79
2016-07-13T18:36:40.967Z,60.6
2016-07-13T18:37:40.971Z,60.6
2016-07-13T18:38:40.979Z,60.89
2016-07-13T18:39:40.970Z,60.79
2016-07-13T18:40:40.974Z,60.99
2016-07-13T18:41:40.978Z,60.6
2016-07-13T18:42:41.175Z,60.89
2016-07-13T18:43:40.979Z,60.89
2016-07-13T18:44:40.978Z,60.79
2016-07-13T18:45:40.980Z,60.79
2016-07-13T18:46:40.979Z,60.69
2016-07-13T18:47:40.983Z,60.79
2016-07-13T18:48:40.982Z,60.69
2016-07-13T18:49:40.980Z,60.99
2016-07-13T18:50:40.986Z,60.99
2016-07-13T18:51:40.990Z,60.79
2016-07-13T18:52:40.984Z,60.99
2016-07-13T18:53:41.192Z,60.89
2016-07-13T18:54:41.187Z,60.89
2016-07-13T18:55:41.196Z,60.89
2016-07-13T18:56:40.992Z,60.99
2016-07-13T18:57:40.993Z,60.99
2016-07-13T18:58:40.992Z,60.89
2016-07-13T18:59:40.994Z,60.99
2016-07-13T19:00:40.995Z,60.99
2016-07-13T19:01:40.997Z,60.99
2016-07-13T19:02:41.200Z,60.99
2016-07-13T19:03:40.996Z,60.99
2016-07-13T19:04:40.995Z,60.99
2016-07-13T19:05:41.001Z,60.99
2016-07-13T19:06:40.999Z,60.79
2016-07-13T19:07:41.001Z,60.89
2016-07-13T19:08:41.003Z,60.89
2016-07-13T19:09:41.004Z,60.69
2016-07-13T19:10:41.004Z,60.99
2016-07-13T19:11:41.014Z,60.99
2016-07-13T19:12:41.019Z,61.18
2016-07-13T19:13:41.011Z,60.89
2016-07-13T19:14:41.009Z,60.99
2016-07-13T19:15:41.016Z,60.99
2016-07-13T19:16:41.012Z,60.99
2016-07-13T19:17:41.015Z,60.99
2016-07-13T19:18:41.015Z,60.99
2016-07-13T19:19:41.016Z,60.99
2016-07-13T19:20:41.018Z,60.89
2016-07-13T19:21:41.018Z,60.79
2016-07-13T19:22:41.016Z,60.89
2016-07-13T19:23:41.018Z,60.89
2016-07-13T19:24:41.023Z,60.99
2016-07-13T19:25:41.012Z,61.18
2016-07-13T19:26:41.021Z,60.89
2016-07-13T19:27:41.024Z,60.99
2016-07-13T19:28:41.021Z,60.79
2016-07-13T19:29:41.034Z,60.79
2016-07-13T19:30:41.026Z,60.79
2016-07-13T19:31:41.026Z,60.69
2016-07-13T19:32:41.029Z,60.69
2016-07-13T19:33:41.029Z,60.69
2016-07-13T19:34:41.027Z,60.99
2016-07-13T19:35:41.031Z,60.89
2016-07-13T19:36:41.027Z,60.99
2016-07-13T19:37:41.032Z,60.99
2016-07-13T19:38:41.031Z,60.99
2016-07-13T19:39:41.038Z,60.69
2016-07-13T19:40:41.040Z,60.79
2016-07-13T19:41:41.039Z,60.89
2016-07-13T19:42:41.040Z,60.99
2016-07-13T19:43:41.036Z,60.89
2016-07-13T19:44:41.041Z,60.99
2016-07-13T19:45:41.039Z,60.99
2016-07-13T19:46:41.039Z,60.89
2016-07-13T19:47:41.045Z,60.99
2016-07-13T19:48:41.045Z,60.99
2016-07-13T19:49:41.036Z,60.89
2016-07-13T19:50:41.047Z,60.99
2016-07-13T19:51:41.049Z,60.99
2016-07-13T19:52:41.044Z,60.99
2016-07-13T19:53:41.044Z,60.89
2016-07-13T19:54:41.051Z,60.99
2016-07-13T19:55:41.050Z,60.79
2016-07-13T19:56:41.048Z,60.99
2016-07-13T19:57:41.055Z,60.99
2016-07-13T19:58:41.049Z,60.99
2016-07-13T19:59:41.050Z,60.99
2016-07-13T20:00:41.049Z,61.08
2016-07-13T20:01:41.052Z,60.89
2016-07-13T20:02:41.054Z,61.08
2016-07-13T20:03:41.052Z,60.89
2016-07-13T20:04:41.056Z,60.99
2016-07-13T20:05:41.058Z,60.89
2016-07-13T20:06:41.060Z,61.08
2016-07-13T20:07:41.260Z,61.08
2016-07-13T20:08:41.263Z,61.08
2016-07-13T20:09:41.061Z,60.99
2016-07-13T20:10:41.056Z,61.18
2016-07-13T20:11:41.066Z,61.18
2016-07-13T20:12:41.068Z,61.18
2016-07-13T20:13:41.066Z,61.27
2016-07-13T20:14:41.063Z,61.15
2016-07-13T20:15:41.066Z,61.08
2016-07-13T20:16:41.068Z,61.08
2016-07-13T20:17:41.066Z,61.27
2016-07-13T20:18:41.070Z,61.27
2016-07-13T20:19:41.071Z,61.08
2016-07-13T20:20:41.070Z,61.15
2016-07-13T20:21:41.067Z,61.25
2016-07-13T20:22:41.073Z,61.15
2016-07-13T20:23:41.275Z,61.15
2016-07-13T20:24:41.069Z,61.27
2016-07-13T20:25:41.075Z,61.15
2016-07-13T20:26:41.278Z,61.18
2016-07-13T20:27:41.079Z,61.15
2016-07-13T20:28:41.079Z,61.15
2016-07-13T20:29:41.079Z,61.25
2016-07-13T20:30:41.125Z,61.18
2016-07-13T20:31:41.083Z,61.25
2016-07-13T20:32:41.079Z,61.18
2016-07-13T20:33:41.083Z,61.27
2016-07-13T20:34:41.080Z,61.27
2016-07-13T20:35:41.082Z,61.25
2016-07-13T20:36:41.083Z,61.05
2016-07-13T20:37:41.081Z,61.15
2016-07-13T20:38:41.086Z,60.96
2016-07-13T20:39:41.087Z,60.96
2016-07-13T20:40:41.085Z,61.25
2016-07-13T20:41:41.285Z,61.27
2016-07-13T20:42:41.083Z,61.05
2016-07-13T20:43:41.086Z,61.15
2016-07-13T20:44:41.086Z,61.34
2016-07-13T20:45:41.093Z,61.05
2016-07-13T20:46:41.089Z,61.15
2016-07-13T20:47:41.092Z,61.25
2016-07-13T20:48:41.094Z,60.86
2016-07-13T20:49:41.301Z,61.25
2016-07-13T20:50:41.095Z,61.25
2016-07-13T20:51:41.095Z,61.54
2016-07-13T20:52:41.090Z,61.25
2016-07-13T20:53:41.095Z,61.34
2016-07-13T20:54:41.098Z,61.25
2016-07-13T20:55:41.094Z,61.05
2016-07-13T20:56:41.095Z,61.25
2016-07-13T20:57:41.097Z,61.44
2016-07-13T20:58:41.102Z,61.54
2016-07-13T20:59:41.101Z,61.25
2016-07-13T21:00:41.099Z,60.96
2016-07-13T21:01:41.102Z,60.96
2016-07-13T21:02:41.103Z,61.63
2016-07-13T21:03:41.105Z,61.63
2016-07-13T21:04:41.103Z,61.63
2016-07-13T21:05:41.120Z,60.96
2016-07-13T21:06:41.106Z,61.15
2016-07-13T21:07:41.106Z,61.25
2016-07-13T21:08:41.110Z,61.15
2016-07-13T21:09:41.109Z,61.63
2016-07-13T21:10:41.314Z,61.63
2016-07-13T21:11:41.312Z,61.63
2016-07-13T21:12:41.106Z,61.25
2016-07-13T21:13:41.110Z,60.96
2016-07-13T21:14:41.109Z,61.15
2016-07-13T21:15:41.109Z,61.34
2016-07-13T21:16:41.111Z,61.34
2016-07-13T21:17:41.112Z,61.34
2016-07-13T21:18:41.112Z,61.34
2016-07-13T21:19:41.110Z,61.34
2016-07-13T21:20:41.110Z,61.25
2016-07-13T21:21:41.117Z,61.54
2016-07-13T21:22:41.114Z,61.25
2016-07-13T21:23:41.113Z,61.25
2016-07-13T21:24:41.114Z,61.25
2016-07-13T21:25:41.118Z,61.25
2016-07-13T21:26:41.116Z,61.15
2016-07-13T21:27:41.116Z,61.25
2016-07-13T21:28:41.120Z,61.34
2016-07-13T21:29:41.122Z,61.15
2016-07-13T21:30:41.379Z,61.15
2016-07-13T21:31:41.117Z,61.54
2016-07-13T21:32:41.130Z,61.25
2016-07-13T21:33:41.119Z,61.15
2016-07-13T21:34:41.126Z,61.25
2016-07-13T21:35:41.120Z,61.44
2016-07-13T21:36:41.124Z,61.15
2016-07-13T21:37:41.125Z,61.54
2016-07-13T21:38:41.132Z,61.34
2016-07-13T21:39:41.125Z,61.54
2016-07-13T21:40:41.123Z,61.41
2016-07-13T21:41:41.122Z,61.15
2016-07-13T21:42:41.120Z,61.44
2016-07-13T21:43:41.124Z,61.15
2016-07-13T21:44:41.126Z,61.15
2016-07-13T21:45:41.129Z,61.34
2016-07-13T21:46:41.131Z,61.15
2016-07-13T21:47:41.127Z,61.15
2016-07-13T21:48:41.127Z,61.34
2016-07-13T21:49:41.130Z,61.34
2016-07-13T21:50:41.131Z,61.15
2016-07-13T21:51:41.131Z,61.15
2016-07-13T21:52:41.133Z,61.15
2016-07-13T21:53:41.129Z,61.15
2016-07-13T21:54:41.129Z,61.44
2016-07-13T21:55:41.127Z,61.44
2016-07-13T21:56:41.133Z,61.25
2016-07-13T21:57:41.141Z,61.44
2016-07-13T21:58:41.135Z,61.02
2016-07-13T21:59:41.133Z,61.22
2016-07-13T22:00:41.130Z,61.34
2016-07-13T22:01:41.132Z,61.41
2016-07-13T22:02:41.138Z,61.41
2016-07-13T22:03:41.138Z,61.41
2016-07-13T22:04:41.138Z,61.31
2016-07-13T22:05:41.137Z,61.51
2016-07-13T22:06:41.137Z,61.41
2016-07-13T22:07:41.137Z,61.41
2016-07-13T22:08:41.137Z,61.41
2016-07-13T22:09:41.140Z,61.51
2016-07-13T22:10:41.138Z,61.31
2016-07-13T22:11:41.139Z,61.31
2016-07-13T22:12:41.144Z,61.31
2016-07-13T22:13:41.132Z,61.41
2016-07-13T22:14:41.144Z,61.41
2016-07-13T22:15:41.149Z,61.31
2016-07-13T22:16:41.140Z,61.89
2016-07-13T22:17:41.140Z,61.51
2016-07-13T22:18:41.150Z,61.31
2016-07-13T22:19:41.149Z,61.51
2016-07-13T22:20:41.142Z,61.51
2016-07-13T22:21:41.144Z,61.6
2016-07-13T22:22:41.142Z,61.51
2016-07-13T22:23:41.150Z,61.31
2016-07-13T22:24:41.351Z,61.7
2016-07-13T22:25:41.150Z,61.51
2016-07-13T22:26:41.147Z,61.51
2016-07-13T22:27:41.152Z,61.6
2016-07-13T22:28:41.350Z,61.6
2016-07-13T22:29:41.144Z,61.51
2016-07-13T22:30:41.404Z,61.41
2016-07-13T22:31:41.147Z,61.8
2016-07-13T22:32:41.150Z,61.51
2016-07-13T22:33:41.152Z,61.7
2016-07-13T22:34:41.153Z,61.8
2016-07-13T22:35:41.153Z,61.41
2016-07-13T22:36:41.151Z,61.6
2016-07-13T22:37:41.151Z,61.6
2016-07-13T22:38:41.155Z,61.6
2016-07-13T22:39:41.150Z,61.6
2016-07-13T22:40:41.154Z,61.7
2016-07-13T22:41:41.157Z,61.51
2016-07-13T22:42:41.153Z,62.08
2016-07-13T22:43:41.150Z,62.08
2016-07-13T22:44:41.160Z,61.99
2016-07-13T22:45:41.153Z,61.8
2016-07-13T22:46:41.161Z,62.08
2016-07-13T22:47:41.152Z,62.08
2016-07-13T22:48:41.157Z,61.99
2016-07-13T22:49:41.153Z,62.08
2016-07-13T22:50:41.167Z,61.99
2016-07-13T22:51:41.158Z,61.99
2016-07-13T22:52:41.165Z,61.89
2016-07-13T22:53:41.159Z,61.89
2016-07-13T22:54:41.156Z,62.08
2016-07-13T22:55:41.159Z,61.99
2016-07-13T22:56:41.152Z,61.99
2016-07-13T22:57:41.157Z,61.89
2016-07-13T22:58:41.158Z,61.99
2016-07-13T22:59:41.161Z,61.89
2016-07-13T23:00:41.161Z,61.99
2016-07-13T23:01:41.157Z,61.99
2016-07-13T23:02:41.163Z,61.99
2016-07-13T23:03:41.165Z,61.99
2016-07-13T23:04:41.166Z,61.8
2016-07-13T23:05:41.162Z,61.99
2016-07-13T23:06:41.164Z,61.6
2016-07-13T23:07:41.162Z,61.8
2016-07-13T23:08:41.164Z,61.99
2016-07-13T23:09:41.159Z,61.7
2016-07-13T23:10:41.162Z,61.7
2016-07-13T23:11:41.158Z,61.7
2016-07-13T23:12:41.163Z,61.7
2016-07-13T23:13:41.163Z,61.7
2016-07-13T23:14:41.165Z,61.67
2016-07-13T23:15:41.171Z,61.67
2016-07-13T23:16:41.162Z,61.7
2016-07-13T23:17:41.162Z,61.57
2016-07-13T23:18:41.367Z,61.96
2016-07-13T23:19:41.368Z,61.7
2016-07-13T23:20:41.167Z,61.77
2016-07-13T23:21:41.160Z,61.67
2016-07-13T23:22:41.167Z,61.67
2016-07-13T23:23:41.162Z,61.67
2016-07-13T23:24:41.168Z,61.67
2016-07-13T23:25:41.168Z,61.57
2016-07-13T23:26:41.169Z,61.57
2016-07-13T23:27:41.164Z,61.67
2016-07-13T23:28:41.163Z,61.67
2016-07-13T23:29:41.165Z,61.86
2016-07-13T23:30:41.177Z,61.67
2016-07-13T23:31:41.163Z,61.67
2016-07-13T23:32:41.167Z,61.57
2016-07-13T23:33:41.171Z,61.86
2016-07-13T23:34:41.165Z,61.86
2016-07-13T23:35:41.182Z,61.77
2016-07-13T23:36:41.175Z,61.77
2016-07-13T23:37:41.169Z,61.77
2016-07-13T23:38:41.179Z,61.67
2016-07-13T23:39:41.166Z,61.77
2016-07-13T23:40:41.165Z,61.77
2016-07-13T23:41:41.173Z,61.86
2016-07-13T23:42:41.177Z,61.67
2016-07-13T23:43:41.370Z,61.67
2016-07-13T23:44:41.172Z,61.96
2016-07-13T23:45:41.169Z,61.67
2016-07-13T23:46:41.171Z,61.77
2016-07-13T23:47:41.172Z,61.67
2016-07-13T23:48:41.170Z,61.86
2016-07-13T23:49:41.169Z,61.67
2016-07-13T23:50:41.176Z,61.67
2016-07-13T23:51:41.173Z,61.77
2016-07-13T23:52:41.174Z,61.77
2016-07-13T23:53:41.370Z,61.77
2016-07-13T23:54:41.171Z,61.57
2016-07-13T23:55:41.172Z,61.86
2016-07-13T23:56:41.168Z,61.77
2016-07-13T23:57:41.173Z,61.67
2016-07-13T23:58:41.170Z,61.86
2016-07-13T23:59:41.172Z,61.57
